Time;durP1;ratioP1;P1;durP2;ratioP2;P2;SDS_P1;SDS_P2;PMS_P1;PMS_P2;Temp;Humidity;BMP_temperature;BMP_pressure;BME280_temperature;BME280_humidity;BME280_pressure;Samples;Min_cycle;Max_cycle;Signal;HPM_P1;HPM_P2
2022/10/09 00:01:16;;;;;;;9.02;6.40;;;;;;;14.05;100.00;99418.38;5175320;27;20054;-53
2022/10/09 00:03:44;;;;;;;11.52;6.55;;;;;;;14.00;100.00;99425.06;5175010;27;20043;-52
2022/10/09 00:06:15;;;;;;;12.75;6.40;;;;;;;13.73;100.00;99429.13;5175064;27;20050;-50
2022/10/09 00:08:42;;;;;;;9.65;6.72;;;;;;;14.12;100.00;99426.69;5174853;27;20110;-50
2022/10/09 00:11:10;;;;;;;10.80;6.60;;;;;;;14.19;100.00;99437.00;5174825;27;20050;-51
2022/10/09 00:13:37;;;;;;;9.98;6.88;;;;;;;14.23;100.00;99435.88;5174811;27;20432;-50
2022/10/09 00:16:05;;;;;;;11.02;6.65;;;;;;;14.18;100.00;99425.19;5174951;27;20394;-54
2022/10/09 00:18:32;;;;;;;13.35;6.50;;;;;;;14.18;100.00;99427.94;5174410;27;20075;-50
2022/10/09 00:20:58;;;;;;;22.02;8.13;;;;;;;13.88;100.00;99419.81;5174835;27;20057;-51
2022/10/09 00:23:25;;;;;;;12.15;6.43;;;;;;;14.14;100.00;99416.09;5174945;27;20053;-50
2022/10/09 00:25:53;;;;;;;14.98;7.70;;;;;;;13.82;100.00;99396.53;5174642;27;20458;-50
2022/10/09 00:28:19;;;;;;;15.68;7.57;;;;;;;13.99;100.00;99379.34;5174708;27;20421;-51
2022/10/09 00:30:46;;;;;;;12.60;7.43;;;;;;;13.91;100.00;99357.63;5174635;27;20047;-49
2022/10/09 00:33:12;;;;;;;18.98;8.27;;;;;;;14.03;100.00;99349.88;5174803;27;20447;-50
2022/10/09 00:35:39;;;;;;;13.32;7.55;;;;;;;13.96;100.00;99376.56;5174754;27;20050;-50
2022/10/09 00:38:05;;;;;;;16.65;7.68;;;;;;;14.02;100.00;99369.53;5174272;27;20056;-51
2022/10/09 00:40:32;;;;;;;16.40;8.00;;;;;;;14.19;100.00;99357.03;5174357;27;20057;-51
2022/10/09 00:42:58;;;;;;;12.25;10.13;;;;;;;14.15;100.00;99356.22;5174255;27;20094;-50
2022/10/09 00:45:26;;;;;;;14.20;7.90;;;;;;;14.19;100.00;99365.31;5174631;27;20450;-52
2022/10/09 00:47:56;;;;;;;16.10;7.15;;;;;;;14.10;100.00;99365.66;5174446;27;20073;-50
2022/10/09 00:50:27;;;;;;;16.27;8.90;;;;;;;14.22;100.00;99356.28;5174419;27;20057;-51
2022/10/09 00:52:58;;;;;;;19.58;8.20;;;;;;;14.18;100.00;99349.94;5174083;27;20050;-51
2022/10/09 00:55:25;;;;;;;17.25;8.68;;;;;;;14.30;100.00;99360.66;5174369;27;20050;-53
2022/10/09 00:57:54;;;;;;;13.43;8.77;;;;;;;14.26;100.00;99368.09;5174111;27;20061;-53
2022/10/09 01:00:20;;;;;;;14.80;7.43;;;;;;;14.13;100.00;99365.69;5174417;27;20110;-51
2022/10/09 01:02:46;;;;;;;15.40;8.93;;;;;;;14.26;100.00;99357.06;5174015;27;20042;-53
2022/10/09 01:05:14;;;;;;;14.85;8.55;;;;;;;14.31;100.00;99371.31;5174002;27;20133;-53
2022/10/09 01:07:47;;;;;;;15.98;8.50;;;;;;;14.18;100.00;99349.94;5173915;27;20054;-50
2022/10/09 01:10:26;;;;;;;12.50;8.63;;;;;;;14.28;100.00;99351.97;5173878;27;20054;-50
2022/10/09 01:13:02;;;;;;;10.82;7.53;;;;;;;14.10;100.00;99338.09;5173901;27;20061;-53
2022/10/09 01:15:33;;;;;;;15.60;8.15;;;;;;;14.23;100.00;99338.53;5173815;27;20042;-51
2022/10/09 01:18:06;;;;;;;14.00;8.45;;;;;;;14.25;100.00;99358.25;5174028;27;20050;-53
2022/10/09 01:20:41;;;;;;;18.57;7.53;;;;;;;14.29;100.00;99356.31;5173803;27;20106;-52
2022/10/09 01:23:33;;;;;;;;;;;;;;;14.32;100.00;99361.06;5174526;27;20568;-54
2022/10/09 01:26:13;;;;;;;12.02;7.35;;;;;;;14.24;100.00;99378.75;5124607;27;19976;-52
2022/10/09 01:28:43;;;;;;;12.93;7.90;;;;;;;13.98;100.00;99366.75;5172891;27;20050;-53
2022/10/09 01:31:12;;;;;;;12.60;7.93;;;;;;;14.18;100.00;99341.69;5174128;27;20515;-54
2022/10/09 01:33:38;;;;;;;14.85;7.95;;;;;;;13.86;100.00;99336.72;5173630;27;20410;-52
2022/10/09 01:36:07;;;;;;;9.68;7.70;;;;;;;14.08;100.00;99334.91;5173771;27;20050;-54
2022/10/09 01:38:34;;;;;;;15.27;7.88;;;;;;;13.82;100.00;99306.38;5173409;27;20523;-51
2022/10/09 01:41:03;;;;;;;11.75;7.53;;;;;;;13.81;100.00;99306.78;5173348;27;20046;-54
2022/10/09 01:43:29;;;;;;;15.15;8.25;;;;;;;14.09;100.00;99314.44;5173312;27;20046;-53
2022/10/09 01:46:18;;;;;;;15.35;8.25;;;;;;;14.20;100.00;99336.56;5173348;27;20081;-54
2022/10/09 01:48:47;;;;;;;15.25;8.38;;;;;;;14.18;100.00;99347.97;5173441;27;20050;-52
2022/10/09 01:51:19;;;;;;;17.67;8.15;;;;;;;14.07;100.00;99349.88;5173288;27;20051;-53
2022/10/09 01:53:47;;;;;;;15.18;7.95;;;;;;;13.94;100.00;99324.59;5173143;27;20113;-53
2022/10/09 01:56:20;;;;;;;11.32;9.80;;;;;;;14.05;100.00;99330.97;5173196;27;20122;-53
2022/10/09 01:58:52;;;;;;;9.55;7.22;;;;;;;14.09;100.00;99331.78;5173141;27;20500;-53
2022/10/09 02:01:23;;;;;;;10.68;7.53;;;;;;;13.99;100.00;99328.94;5173090;27;20169;-50
2022/10/09 02:03:52;;;;;;;11.77;8.40;;;;;;;14.05;100.00;99343.94;5172961;27;20056;-51
2022/10/09 02:06:20;;;;;;;13.40;8.13;;;;;;;13.89;100.00;99338.72;5173021;27;21443;-50
2022/10/09 02:08:49;;;;;;;12.60;7.65;;;;;;;13.91;100.00;99330.09;5172828;27;20046;-50
2022/10/09 02:11:16;;;;;;;12.95;8.27;;;;;;;13.81;100.00;99331.59;5172969;27;20485;-50
2022/10/09 02:13:43;;;;;;;11.68;7.30;;;;;;;13.57;100.00;99328.25;5172799;27;20046;-53
2022/10/09 02:16:16;;;;;;;12.18;8.45;;;;;;;13.64;100.00;99313.75;5173135;27;20046;-52
2022/10/09 02:18:45;;;;;;;17.25;9.52;;;;;;;13.73;100.00;99307.88;5172669;27;20050;-51
2022/10/09 02:21:15;;;;;;;15.15;7.95;;;;;;;13.68;100.00;99306.28;5173194;27;20133;-51
2022/10/09 02:23:43;;;;;;;11.15;7.97;;;;;;;13.62;100.00;99285.78;5172665;27;20053;-52
2022/10/09 02:26:10;;;;;;;18.20;10.02;;;;;;;13.65;100.00;99285.81;5172741;27;20047;-51
2022/10/09 02:28:37;;;;;;;19.63;10.15;;;;;;;13.34;100.00;99261.56;5172653;27;20073;-51
2022/10/09 02:31:10;;;;;;;14.27;9.60;;;;;;;13.43;100.00;99226.25;5172467;27;20420;-54
2022/10/09 02:33:36;;;;;;;16.23;9.63;;;;;;;13.47;100.00;99229.81;5172627;27;20515;-52
2022/10/09 02:36:04;;;;;;;15.60;10.23;;;;;;;13.53;100.00;99224.72;5172672;27;20279;-51
2022/10/09 02:38:30;;;;;;;18.63;10.68;;;;;;;13.56;100.00;99243.22;5172536;27;20047;-50
2022/10/09 02:41:00;;;;;;;16.95;11.40;;;;;;;13.63;100.00;99251.56;5172438;27;20042;-50
2022/10/09 02:43:26;;;;;;;15.40;10.07;;;;;;;13.53;100.00;99261.34;5172677;27;20050;-50
2022/10/09 02:45:53;;;;;;;13.65;9.70;;;;;;;13.59;100.00;99265.28;5172314;27;20057;-53
2022/10/09 02:48:19;;;;;;;13.70;9.88;;;;;;;13.58;100.00;99254.66;5172570;27;20046;-51
2022/10/09 02:50:45;;;;;;;16.77;11.93;;;;;;;13.57;100.00;99253.09;5172185;27;20046;-53
2022/10/09 02:53:12;;;;;;;18.13;11.10;;;;;;;13.55;100.00;99252.69;5172494;27;20049;-51
2022/10/09 02:55:39;;;;;;;22.40;11.32;;;;;;;13.50;100.00;99253.84;5172231;27;20105;-52
2022/10/09 02:58:05;;;;;;;17.00;10.00;;;;;;;13.54;100.00;99264.88;5172031;27;20614;-51
2022/10/09 03:00:31;;;;;;;24.15;10.77;;;;;;;13.50;100.00;99251.06;5172097;27;20505;-50
2022/10/09 03:02:57;;;;;;;15.43;11.02;;;;;;;13.53;100.00;99261.34;5172116;27;20532;-51
2022/10/09 03:05:24;;;;;;;16.35;10.02;;;;;;;13.58;100.00;99268.44;5172501;27;20055;-54
2022/10/09 03:07:51;;;;;;;26.15;12.43;;;;;;;12.95;100.00;99229.75;5172211;27;20425;-54
2022/10/09 03:10:19;;;;;;;18.63;12.35;;;;;;;13.39;100.00;99190.44;5172095;27;20047;-51
2022/10/09 03:12:46;;;;;;;22.63;13.57;;;;;;;13.46;100.00;99197.91;5171966;27;20046;-52
2022/10/09 03:15:12;;;;;;;25.48;12.73;;;;;;;13.50;100.00;99225.50;5172244;27;20049;-53
2022/10/09 03:17:39;;;;;;;16.75;11.82;;;;;;;13.38;100.00;99234.84;5171956;27;20098;-51
2022/10/09 03:20:06;;;;;;;24.05;12.98;;;;;;;13.52;100.00;99234.94;5171991;27;20071;-52
2022/10/09 03:22:32;;;;;;;22.95;12.90;;;;;;;13.54;100.00;99251.88;5171903;27;20046;-53
2022/10/09 03:24:58;;;;;;;20.20;13.27;;;;;;;13.56;100.00;99252.31;5171930;27;20057;-50
2022/10/09 03:27:25;;;;;;;25.85;14.18;;;;;;;13.48;100.00;99223.13;5172301;27;20485;-50
2022/10/09 03:29:51;;;;;;;19.10;13.25;;;;;;;13.26;100.00;99216.69;5172065;27;20046;-53
2022/10/09 03:32:18;;;;;;;20.50;14.68;;;;;;;13.35;100.00;99186.84;5172008;27;20051;-51
2022/10/09 03:34:44;;;;;;;20.55;12.13;;;;;;;13.34;100.00;99189.97;5171939;27;20054;-53
2022/10/09 03:37:10;;;;;;;16.13;11.27;;;;;;;13.10;100.00;99194.88;5171940;27;20496;-51
2022/10/09 03:39:36;;;;;;;14.15;9.95;;;;;;;13.22;100.00;99149.75;5172010;27;20054;-50
2022/10/09 03:42:03;;;;;;;12.60;9.57;;;;;;;13.38;100.00;99174.28;5172109;27;20046;-50
2022/10/09 03:44:29;;;;;;;13.73;9.52;;;;;;;13.23;100.00;99202.81;5171863;27;20046;-51
2022/10/09 03:46:56;;;;;;;16.23;9.93;;;;;;;13.32;100.00;99206.09;5171799;27;20048;-51
2022/10/09 03:49:22;;;;;;;13.63;9.48;;;;;;;13.29;100.00;99228.88;5171527;27;20421;-50
2022/10/09 03:51:48;;;;;;;14.15;9.10;;;;;;;12.95;100.00;99245.47;5171628;27;20046;-53
2022/10/09 03:54:14;;;;;;;13.98;9.23;;;;;;;13.15;100.00;99218.50;5175197;27;20062;-52
2022/10/09 03:56:40;;;;;;;15.15;8.82;;;;;;;13.21;100.00;99229.97;5175014;27;20451;-53
2022/10/09 03:59:08;;;;;;;17.48;9.27;;;;;;;13.01;100.00;99259.69;5174909;27;20053;-53
2022/10/09 04:01:35;;;;;;;12.65;8.70;;;;;;;13.19;100.00;99266.94;5175241;27;20054;-54
2022/10/09 04:04:01;;;;;;;15.15;9.05;;;;;;;13.13;100.00;99265.69;5175290;27;20050;-51
2022/10/09 04:06:28;;;;;;;12.52;8.23;;;;;;;13.03;100.00;99282.91;5174934;27;20568;-53
2022/10/09 04:08:55;;;;;;;14.23;9.55;;;;;;;13.24;100.00;99273.25;5175270;27;20516;-52
2022/10/09 04:11:21;;;;;;;13.77;8.48;;;;;;;13.08;100.00;99282.53;5174752;27;21159;-52
2022/10/09 04:13:48;;;;;;;13.27;7.57;;;;;;;13.18;100.00;99294.81;5175108;27;20042;-52
2022/10/09 04:16:14;;;;;;;14.93;7.88;;;;;;;13.20;100.00;99295.25;5174811;27;20058;-53
2022/10/09 04:18:42;;;;;;;10.85;7.32;;;;;;;13.21;100.00;99320.81;5174769;27;20050;-52
2022/10/09 04:21:08;;;;;;;14.18;8.88;;;;;;;13.09;100.00;99317.16;5174673;27;20046;-53
2022/10/09 04:23:34;;;;;;;15.00;9.45;;;;;;;13.11;100.00;99336.84;5174608;27;20562;-50
2022/10/09 04:26:01;;;;;;;17.00;10.60;;;;;;;12.80;100.00;99334.53;5174557;27;20102;-52
2022/10/09 04:28:29;;;;;;;20.23;8.48;;;;;;;13.13;100.00;99334.50;5174598;27;20046;-52
2022/10/09 04:30:56;;;;;;;19.30;9.60;;;;;;;13.11;100.00;99347.84;5174668;27;20046;-53
2022/10/09 04:33:23;;;;;;;18.27;9.57;;;;;;;12.78;100.00;99364.38;5174517;27;20046;-52
2022/10/09 04:35:51;;;;;;;13.27;9.48;;;;;;;13.07;100.00;99337.97;5174458;27;20079;-50
2022/10/09 04:38:18;;;;;;;17.50;9.20;;;;;;;12.79;100.00;99335.69;5174304;27;20057;-51
2022/10/09 04:40:54;;;;;;;17.42;9.52;;;;;;;12.98;100.00;99335.50;5174643;27;20042;-54
2022/10/09 04:43:20;;;;;;;14.13;8.50;;;;;;;13.19;100.00;99344.00;5174403;27;20042;-50
2022/10/09 04:45:46;;;;;;;12.50;8.68;;;;;;;13.04;100.00;99361.53;5174648;27;20046;-51
2022/10/09 04:48:12;;;;;;;14.02;9.30;;;;;;;13.22;100.00;99374.69;5174559;27;20050;-51
2022/10/09 04:50:38;;;;;;;19.02;10.38;;;;;;;13.02;100.00;99393.34;5174289;27;20046;-51
2022/10/09 04:53:05;;;;;;;13.52;9.10;;;;;;;12.98;100.00;99381.50;5174621;27;20106;-49
2022/10/09 04:55:32;;;;;;;14.88;8.98;;;;;;;12.99;100.00;99385.84;5174384;27;20118;-50
2022/10/09 04:57:58;;;;;;;15.27;9.20;;;;;;;13.10;100.00;99401.31;5174137;27;20523;-53
2022/10/09 05:00:24;;;;;;;16.08;8.68;;;;;;;13.02;100.00;99404.34;5174227;27;20102;-53
2022/10/09 05:02:50;;;;;;;14.48;9.23;;;;;;;12.70;100.00;99388.25;5173854;27;20524;-50
2022/10/09 05:05:16;;;;;;;13.35;9.13;;;;;;;13.00;100.00;99381.94;5172749;27;20095;-54
2022/10/09 05:07:42;;;;;;;15.93;9.57;;;;;;;12.95;100.00;99388.56;5174221;27;20049;-54
2022/10/09 05:10:09;;;;;;;12.95;9.23;;;;;;;12.74;100.00;99413.06;5174013;27;20425;-54
2022/10/09 05:12:36;;;;;;;16.35;9.63;;;;;;;12.99;100.00;99399.59;5174126;27;20042;-51
2022/10/09 05:15:02;;;;;;;13.48;9.63;;;;;;;13.00;100.00;99409.47;5173783;27;20042;-51
2022/10/09 05:17:28;;;;;;;14.43;9.55;;;;;;;13.01;100.00;99431.09;5173606;27;20048;-50
2022/10/09 05:19:54;;;;;;;14.15;9.35;;;;;;;13.00;100.00;99423.22;5173774;27;20409;-51
2022/10/09 05:22:21;;;;;;;14.63;8.77;;;;;;;13.05;100.00;99445.69;5173781;27;20050;-50
2022/10/09 05:24:47;;;;;;;15.52;9.38;;;;;;;12.91;100.00;99453.75;5173594;27;20050;-50
2022/10/09 05:27:15;;;;;;;17.95;9.98;;;;;;;12.87;100.00;99452.94;5173667;27;20062;-50
2022/10/09 05:29:41;;;;;;;15.85;9.20;;;;;;;12.83;100.00;99477.66;5173745;27;20046;-51
2022/10/09 05:32:07;;;;;;;16.88;9.98;;;;;;;12.88;100.00;99484.78;5173582;27;20092;-51
2022/10/09 05:34:33;;;;;;;14.68;10.00;;;;;;;13.08;100.00;99504.69;5173792;27;20052;-52
2022/10/09 05:37:00;;;;;;;17.60;9.35;;;;;;;13.14;100.00;99519.72;5173407;27;20054;-50
2022/10/09 05:39:26;;;;;;;17.20;8.88;;;;;;;13.04;100.00;99512.91;5173548;27;20050;-52
2022/10/09 05:41:52;;;;;;;16.70;8.93;;;;;;;13.12;100.00;99522.03;5173446;27;20054;-51
2022/10/09 05:44:19;;;;;;;11.43;8.13;;;;;;;13.06;100.00;99532.59;5173353;27;20502;-53
2022/10/09 05:46:45;;;;;;;14.63;8.57;;;;;;;13.03;100.00;99549.03;5173371;27;20050;-50
2022/10/09 05:49:11;;;;;;;16.45;9.05;;;;;;;13.15;100.00;99551.59;5173203;27;20054;-51
2022/10/09 05:51:39;;;;;;;17.33;10.20;;;;;;;13.23;100.00;99560.72;5173290;27;20060;-50
2022/10/09 05:54:06;;;;;;;14.40;8.43;;;;;;;13.14;100.00;99570.06;5173297;27;20069;-52
2022/10/09 05:56:34;;;;;;;15.23;8.80;;;;;;;13.03;100.00;99573.81;5173193;27;20050;-51
2022/10/09 05:59:02;;;;;;;14.32;9.30;;;;;;;12.90;100.00;99557.53;5173061;27;20046;-49
2022/10/09 06:01:31;;;;;;;17.70;8.70;;;;;;;13.00;100.00;99555.31;5173205;27;20046;-50
2022/10/09 06:03:59;;;;;;;14.25;8.77;;;;;;;12.92;100.00;99573.66;5172970;27;20057;-50
2022/10/09 06:06:28;;;;;;;18.60;8.32;;;;;;;12.83;100.00;99582.19;5173186;27;20042;-51
2022/10/09 06:08:55;;;;;;;15.35;8.55;;;;;;;12.79;100.00;99602.56;5173119;27;20054;-51
2022/10/09 06:11:23;;;;;;;15.80;8.57;;;;;;;12.97;100.00;99609.13;5172949;27;20046;-50
2022/10/09 06:13:50;;;;;;;18.80;8.73;;;;;;;13.14;100.00;99616.06;5172945;27;20046;-50
2022/10/09 06:16:18;;;;;;;14.20;7.70;;;;;;;12.89;100.00;99632.19;5172866;27;20073;-51
2022/10/09 06:18:46;;;;;;;14.75;7.22;;;;;;;12.99;100.00;99641.78;5172673;27;20058;-54
2022/10/09 06:21:13;;;;;;;19.85;8.05;;;;;;;13.00;100.00;99635.91;5172882;27;20053;-53
2022/10/09 06:23:40;;;;;;;13.43;7.45;;;;;;;13.23;100.00;99638.63;5172961;27;20050;-53
2022/10/09 06:26:09;;;;;;;13.82;7.57;;;;;;;13.32;100.00;99644.66;5172694;27;20050;-53
2022/10/09 06:28:35;;;;;;;17.58;6.78;;;;;;;13.01;100.00;99648.50;5172754;27;20060;-53
2022/10/09 06:31:02;;;;;;;11.60;6.75;;;;;;;13.17;100.00;99657.41;5172649;27;20130;-51
2022/10/09 06:33:30;;;;;;;12.43;7.22;;;;;;;12.97;100.00;99660.63;5172809;27;20102;-51
2022/10/09 06:36:00;;;;;;;16.50;7.93;;;;;;;12.99;100.00;99655.53;5172527;27;20050;-53
2022/10/09 06:38:26;;;;;;;11.27;5.93;;;;;;;12.94;100.00;99673.16;5172603;27;20046;-52
2022/10/09 06:40:52;;;;;;;14.35;6.93;;;;;;;12.87;100.00;99673.84;5172511;27;20057;-51
2022/10/09 06:43:18;;;;;;;15.65;6.45;;;;;;;12.92;100.00;99675.47;5172210;27;20058;-54
2022/10/09 06:45:44;;;;;;;14.65;6.28;;;;;;;13.25;100.00;99676.81;5172263;27;20505;-53
2022/10/09 06:48:11;;;;;;;10.68;5.53;;;;;;;13.26;100.00;99681.97;5172217;27;20046;-53
2022/10/09 06:50:37;;;;;;;11.57;5.75;;;;;;;13.19;100.00;99679.88;5172388;27;20042;-52
2022/10/09 06:53:04;;;;;;;10.93;5.20;;;;;;;13.17;100.00;99693.22;5172427;27;20060;-53
2022/10/09 06:55:31;;;;;;;14.10;5.07;;;;;;;13.17;100.00;99690.44;5172464;27;20046;-51
2022/10/09 06:57:57;;;;;;;9.45;5.55;;;;;;;13.14;100.00;99688.44;5172103;27;20050;-50
2022/10/09 07:00:23;;;;;;;10.98;5.35;;;;;;;13.12;100.00;99689.97;5172316;27;20080;-50
2022/10/09 07:02:49;;;;;;;10.10;5.03;;;;;;;12.65;100.00;99669.13;5172205;27;20052;-53
2022/10/09 07:05:16;;;;;;;10.18;5.97;;;;;;;12.82;100.00;99681.59;5172627;27;20042;-50
2022/10/09 07:07:42;;;;;;;7.05;4.80;;;;;;;12.98;100.00;99698.78;5172055;27;20077;-52
2022/10/09 07:10:09;;;;;;;10.85;5.40;;;;;;;13.14;100.00;99699.44;5172065;27;20091;-50
2022/10/09 07:12:36;;;;;;;10.77;4.95;;;;;;;13.30;100.00;99699.34;5171970;27;20057;-53
2022/10/09 07:15:05;;;;;;;11.93;5.57;;;;;;;13.31;100.00;99698.16;5172249;27;20528;-50
2022/10/09 07:17:31;;;;;;;11.52;7.13;;;;;;;13.45;100.00;99689.31;5171976;27;20052;-52
2022/10/09 07:19:58;;;;;;;10.27;4.10;;;;;;;13.34;100.00;99696.63;5171841;27;20054;-51
2022/10/09 07:22:24;;;;;;;7.63;4.28;;;;;;;13.63;100.00;99686.84;5172226;27;20106;-53
2022/10/09 07:24:50;;;;;;;9.73;4.53;;;;;;;13.82;100.00;99652.81;5171878;27;20046;-50
2022/10/09 07:27:17;;;;;;;8.35;3.60;;;;;;;13.64;100.00;99616.78;5172862;27;20054;-53
2022/10/09 07:29:43;;;;;;;8.60;3.72;;;;;;;13.94;100.00;99607.69;5175525;27;20053;-51
2022/10/09 07:32:10;;;;;;;7.57;3.90;;;;;;;13.74;100.00;99583.06;5175792;27;20053;-53
2022/10/09 07:34:36;;;;;;;7.00;3.78;;;;;;;13.95;100.00;99560.44;5175299;27;20046;-51
2022/10/09 07:37:02;;;;;;;13.45;4.03;;;;;;;13.84;100.00;99560.34;5175360;27;20050;-54
2022/10/09 07:39:28;;;;;;;5.70;3.70;;;;;;;13.92;100.00;99547.41;5175378;27;20050;-51
2022/10/09 07:41:54;;;;;;;5.60;3.35;;;;;;;14.06;100.00;99542.06;5175589;27;20054;-54
2022/10/09 07:44:21;;;;;;;7.88;3.42;;;;;;;14.08;100.00;99492.06;5175106;27;20090;-52
2022/10/09 07:46:49;;;;;;;8.82;3.58;;;;;;;14.07;100.00;99483.00;5175330;27;20509;-54
2022/10/09 07:49:15;;;;;;;8.05;3.60;;;;;;;14.02;100.00;99447.50;5175322;27;20094;-52
2022/10/09 07:51:42;;;;;;;12.13;3.58;;;;;;;13.78;100.00;99448.88;5175123;27;20050;-51
2022/10/09 07:54:08;;;;;;;7.65;3.22;;;;;;;13.88;100.00;99467.47;5175400;27;20050;-50
2022/10/09 07:56:36;;;;;;;6.28;2.80;;;;;;;13.99;100.00;99464.78;5175041;27;20094;-52
2022/10/09 07:59:04;;;;;;;7.40;3.58;;;;;;;13.86;100.00;99480.03;5175242;27;20081;-50
2022/10/09 08:01:32;;;;;;;4.05;2.63;;;;;;;13.35;100.00;99506.25;5175262;27;20081;-50
2022/10/09 08:04:00;;;;;;;8.20;3.25;;;;;;;13.24;100.00;99576.91;5175038;27;20069;-50
2022/10/09 08:06:27;;;;;;;6.43;3.40;;;;;;;13.42;100.00;99564.16;5174873;27;20443;-51
2022/10/09 08:08:55;;;;;;;7.50;2.85;;;;;;;13.40;100.00;99544.47;5174866;27;20095;-51
2022/10/09 08:11:23;;;;;;;6.50;2.92;;;;;;;13.58;100.00;99491.56;5175064;27;20505;-50
2022/10/09 08:13:51;;;;;;;8.95;2.67;;;;;;;13.61;100.00;99419.19;5175107;27;20057;-50
2022/10/09 08:16:19;;;;;;;8.23;2.38;;;;;;;13.07;100.00;99354.50;5174987;27;20477;-51
2022/10/09 08:18:46;;;;;;;8.32;2.40;;;;;;;13.46;100.00;99384.41;5174668;27;20057;-53
2022/10/09 08:21:14;;;;;;;4.60;2.20;;;;;;;13.65;100.00;99244.47;5175060;27;20042;-54
2022/10/09 08:23:41;;;;;;;6.72;2.65;;;;;;;14.26;100.00;99290.91;5174749;27;20058;-51
2022/10/09 08:26:12;;;;;;;5.93;2.42;;;;;;;15.17;100.00;98993.41;5174925;27;20509;-53
2022/10/09 08:28:39;;;;;;;4.63;1.77;;;;;;;15.14;100.00;98800.13;5174521;27;20050;-51
2022/10/09 08:31:10;;;;;;;2.60;2.10;;;;;;;15.28;100.00;98662.72;5174484;27;20061;-51
2022/10/09 08:33:36;;;;;;;6.65;2.58;;;;;;;15.19;100.00;98598.13;5174842;27;20046;-52
2022/10/09 08:36:07;;;;;;;8.60;2.45;;;;;;;14.76;100.00;98648.16;5174588;27;20046;-53
2022/10/09 08:38:33;;;;;;;3.78;2.08;;;;;;;14.54;100.00;98777.19;5174357;27;20076;-51
2022/10/09 08:41:05;;;;;;;2.83;2.22;;;;;;;15.01;100.00;98786.78;5174293;27;20046;-52
2022/10/09 08:43:36;;;;;;;5.28;1.95;;;;;;;14.91;100.00;98535.72;5174709;27;20540;-54
2022/10/09 08:46:07;;;;;;;7.40;2.22;;;;;;;14.89;100.00;98491.94;5174321;27;20465;-54
2022/10/09 08:48:38;;;;;;;2.95;1.67;;;;;;;14.48;100.00;98503.75;5174533;27;20057;-53
2022/10/09 08:51:12;;;;;;;5.18;2.00;;;;;;;14.26;100.00;98502.34;5174124;27;20054;-54
2022/10/09 08:53:46;;;;;;;4.75;1.92;;;;;;;14.25;100.00;98536.63;5174418;27;20046;-52
2022/10/09 08:56:14;;;;;;;4.22;1.60;;;;;;;14.64;100.00;98530.81;5174252;27;20126;-53
2022/10/09 08:58:43;;;;;;;4.40;1.65;;;;;;;14.77;100.00;98498.00;5174109;27;20058;-54
2022/10/09 09:01:18;;;;;;;5.20;1.85;;;;;;;14.78;100.00;98430.59;5174280;27;20102;-55
2022/10/09 09:04:22;;;;;;;4.38;1.50;;;;;;;14.87;100.00;98413.53;5174275;27;20497;-51
2022/10/09 09:07:00;;;;;;;4.13;1.90;;;;;;;14.54;100.00;98474.56;5173982;27;20070;-54
2022/10/09 09:09:38;;;;;;;6.18;2.75;;;;;;;14.60;100.00;98565.94;5173799;27;20055;-53
2022/10/09 09:12:11;;;;;;;4.78;1.73;;;;;;;15.29;100.00;98462.72;5174143;27;20428;-54
2022/10/09 09:14:49;;;;;;;5.50;1.67;;;;;;;15.55;100.00;98432.78;5174193;27;20050;-55
2022/10/09 09:17:23;;;;;;;6.22;2.00;;;;;;;16.90;100.00;98368.13;5173778;27;20416;-53
2022/10/09 09:19:58;;;;;;;5.05;1.88;;;;;;;17.22;100.00;98339.75;5173711;27;20050;-51
2022/10/09 09:22:26;;;;;;;7.50;2.15;;;;;;;16.93;100.00;98361.75;5173756;27;20054;-55
2022/10/09 09:24:53;;;;;;;8.50;3.53;;;;;;;16.28;100.00;98350.31;5173857;27;20137;-54
2022/10/09 09:27:25;;;;;;;9.07;2.88;;;;;;;15.91;100.00;98419.25;5173611;27;20046;-55
2022/10/09 09:29:57;;;;;;;7.78;2.42;;;;;;;15.43;100.00;98590.81;5173657;27;20072;-55
2022/10/09 09:32:26;;;;;;;5.00;2.10;;;;;;;15.27;100.00;98693.53;5173897;27;20110;-55
2022/10/09 09:35:02;;;;;;;3.33;1.80;;;;;;;15.25;100.00;98685.63;5173835;27;20046;-51
2022/10/09 09:37:29;;;;;;;4.97;1.60;;;;;;;14.78;100.00;98814.13;5173702;27;20058;-54
2022/10/09 09:39:56;;;;;;;4.57;1.38;;;;;;;14.61;100.00;98870.16;5173360;27;20052;-53
2022/10/09 09:42:22;;;;;;;4.00;1.80;;;;;;;14.32;100.00;99003.34;5173756;27;20078;-53
2022/10/09 09:44:57;;;;;;;4.68;1.77;;;;;;;14.24;100.00;99131.38;5173358;27;20045;-54
2022/10/09 09:47:29;;;;;;;6.43;1.45;;;;;;;14.26;100.00;99089.59;5173636;27;20042;-52
2022/10/09 09:49:57;;;;;;;5.53;1.30;;;;;;;14.24;100.00;99069.94;5172809;27;20094;-54
2022/10/09 09:52:26;;;;;;;3.40;1.90;;;;;;;14.35;100.00;99071.50;5173334;27;20062;-54
2022/10/09 09:54:55;;;;;;;10.73;1.60;;;;;;;15.04;100.00;98926.00;5173312;27;20046;-54
2022/10/09 09:57:30;;;;;;;7.53;1.83;;;;;;;15.65;100.00;98762.63;5172945;27;20106;-54
2022/10/09 10:00:05;;;;;;;;;;;;;;;16.38;100.00;98554.03;5173640;27;20054;-54
2022/10/09 10:02:31;;;;;;;5.43;1.80;;;;;;;16.89;100.00;98447.66;5173348;27;19923;-55
2022/10/09 10:04:59;;;;;;;6.13;2.05;;;;;;;16.72;100.00;98418.25;5173336;27;20058;-55
2022/10/09 10:07:30;;;;;;;9.48;2.20;;;;;;;16.56;100.00;98429.22;5172971;27;20050;-54
2022/10/09 10:10:15;;;;;;;4.45;2.60;;;;;;;16.69;100.00;98438.47;5173278;27;20099;-56
2022/10/09 10:12:44;;;;;;;5.35;1.80;;;;;;;16.71;100.00;98434.09;5173114;27;20085;-55
2022/10/09 10:15:19;;;;;;;8.15;2.88;;;;;;;16.50;100.00;98578.34;5172902;27;20490;-55
2022/10/09 10:17:47;;;;;;;7.85;2.80;;;;;;;16.09;100.00;98636.63;5173067;27;20409;-53
2022/10/09 10:20:15;;;;;;;6.30;2.15;;;;;;;16.11;100.00;98678.47;5172929;27;20050;-55
2022/10/09 10:22:45;;;;;;;5.07;1.60;;;;;;;15.83;100.00;98735.66;5173116;27;20133;-52
2022/10/09 10:25:17;;;;;;;3.78;1.48;;;;;;;15.13;100.00;98715.72;5172567;27;20050;-53
2022/10/09 10:27:49;;;;;;;6.55;1.70;;;;;;;14.79;100.00;98822.03;5172943;27;20054;-53
2022/10/09 10:30:18;;;;;;;6.03;1.58;;;;;;;14.43;100.00;98826.84;5172517;27;20398;-55
2022/10/09 10:32:51;;;;;;;8.73;1.85;;;;;;;14.46;100.00;99004.53;5172863;27;20054;-50
2022/10/09 10:35:21;;;;;;;7.82;1.90;;;;;;;14.31;100.00;99070.72;5172647;27;20046;-51
2022/10/09 10:37:55;;;;;;;5.72;1.50;;;;;;;14.10;100.00;99140.41;5172394;27;20421;-52
2022/10/09 10:40:24;;;;;;;8.32;1.63;;;;;;;14.05;100.00;99220.69;5172929;27;20046;-53
2022/10/09 10:43:03;;;;;;;4.00;1.45;;;;;;;13.94;100.00;99290.72;5172753;27;20050;-54
2022/10/09 10:45:34;;;;;;;4.93;0.80;;;;;;;13.92;100.00;99276.53;5172366;27;20061;-54
2022/10/09 10:48:02;;;;;;;4.57;1.50;;;;;;;13.75;100.00;98895.03;5172530;27;20378;-54
2022/10/09 10:50:36;;;;;;;2.05;0.90;;;;;;;13.52;100.00;98779.75;5172535;27;20078;-54
2022/10/09 10:53:10;;;;;;;2.95;0.98;;;;;;;13.56;100.00;98882.44;5172272;27;20066;-54
2022/10/09 10:55:50;;;;;;;3.60;1.00;;;;;;;13.65;100.00;99059.13;5172207;27;20050;-54
2022/10/09 10:58:28;;;;;;;3.08;1.20;;;;;;;13.41;100.00;99308.44;5172235;27;20061;-54
2022/10/09 11:01:10;;;;;;;2.55;1.05;;;;;;;13.07;100.00;99415.03;5172148;27;20050;-52
2022/10/09 11:03:49;;;;;;;3.42;1.20;;;;;;;13.25;100.00;99467.56;5171765;27;20042;-54
2022/10/09 11:06:22;;;;;;;3.90;1.00;;;;;;;13.43;100.00;99531.94;5171999;27;20050;-53
2022/10/09 11:09:04;;;;;;;4.03;1.77;;;;;;;13.56;100.00;99602.13;5172092;27;20055;-54
2022/10/09 11:11:38;;;;;;;4.47;1.02;;;;;;;13.28;100.00;99599.78;5172222;27;20046;-53
2022/10/09 11:14:17;;;;;;;7.80;1.77;;;;;;;12.55;100.00;99637.53;5171989;27;20089;-54
2022/10/09 11:16:57;;;;;;;3.65;1.10;;;;;;;12.65;100.00;99719.44;5172427;27;20054;-54
2022/10/09 11:19:42;;;;;;;7.55;1.40;;;;;;;12.71;100.00;99730.94;5172197;27;20093;-54
2022/10/09 11:22:22;;;;;;;2.70;1.20;;;;;;;12.63;100.00;99741.03;5171917;27;20137;-54
2022/10/09 11:25:15;;;;;;;2.88;1.00;;;;;;;12.71;100.00;99709.72;5171983;27;20125;-52
2022/10/09 11:27:48;;;;;;;2.33;1.23;;;;;;;12.85;100.00;99665.16;5168551;27;20168;-51